createdAt,value
2022-09-30T00:00:01.102Z,1007.64
2022-09-30T00:01:05.956Z,1007.59
2022-09-30T00:02:02.225Z,1007.59
2022-09-30T00:03:01.275Z,1007.62
2022-09-30T00:04:01.052Z,1007.58
2022-09-30T00:05:01.124Z,1007.62
2022-09-30T00:06:09.356Z,1007.54
2022-09-30T00:07:01.719Z,1007.6
2022-09-30T00:08:01.062Z,1007.6
2022-09-30T00:09:01.089Z,1007.61
2022-09-30T00:10:01.752Z,1007.62
2022-09-30T00:11:11.296Z,1007.64
2022-09-30T00:12:02.080Z,1007.6
2022-09-30T00:13:02.089Z,1007.56
2022-09-30T00:14:01.207Z,1007.59
2022-09-30T00:15:01.098Z,1007.57
2022-09-30T00:16:13.744Z,1007.58
2022-09-30T00:17:01.683Z,1007.51
2022-09-30T00:18:01.158Z,1007.54
2022-09-30T00:19:01.525Z,1007.52
2022-09-30T00:20:01.794Z,1007.58
2022-09-30T00:21:15.302Z,1007.58
2022-09-30T00:22:01.097Z,1007.59
2022-09-30T00:23:01.546Z,1007.56
2022-09-30T00:24:01.046Z,1007.53
2022-09-30T00:25:01.054Z,1007.51
2022-09-30T00:26:01.233Z,1007.51
2022-09-30T00:27:02.396Z,1007.51
2022-09-30T00:28:01.232Z,1007.54
2022-09-30T00:29:01.404Z,1007.54
2022-09-30T00:30:02.105Z,1007.52
2022-09-30T00:31:01.769Z,1007.54
2022-09-30T00:32:01.344Z,1007.56
2022-09-30T00:33:01.133Z,1007.57
2022-09-30T00:34:01.176Z,1007.57
2022-09-30T00:35:01.474Z,1007.6
2022-09-30T00:36:01.308Z,1007.52
2022-09-30T00:37:01.976Z,1007.56
2022-09-30T00:38:02.018Z,1007.55
2022-09-30T00:39:01.171Z,1007.6
2022-09-30T00:40:01.459Z,1007.61
2022-09-30T00:41:01.171Z,1007.54
2022-09-30T00:42:01.083Z,1007.59
2022-09-30T00:43:01.138Z,1007.58
2022-09-30T00:44:01.093Z,1007.57
2022-09-30T00:45:01.041Z,1007.57
2022-09-30T00:46:01.041Z,1007.57
2022-09-30T00:47:01.177Z,1007.6
2022-09-30T00:48:01.143Z,1007.58
2022-09-30T00:49:01.498Z,1007.64
2022-09-30T00:50:01.118Z,1007.61
2022-09-30T00:51:01.116Z,1007.61
2022-09-30T00:52:01.141Z,1007.6
2022-09-30T00:53:01.159Z,1007.58
2022-09-30T00:54:01.150Z,1007.56
2022-09-30T00:55:01.158Z,1007.61
2022-09-30T00:56:01.159Z,1007.6
2022-09-30T00:57:01.875Z,1007.61
2022-09-30T00:58:02.076Z,1007.62
2022-09-30T00:59:01.038Z,1007.67
2022-09-30T01:00:01.093Z,1007.64
2022-09-30T01:01:01.175Z,1007.59
2022-09-30T01:02:01.171Z,1007.66
2022-09-30T01:03:01.951Z,1007.62
2022-09-30T01:04:01.140Z,1007.61
2022-09-30T01:05:01.416Z,1007.62
2022-09-30T01:06:01.286Z,1007.68
2022-09-30T01:07:01.137Z,1007.59
2022-09-30T01:08:01.911Z,1007.58
2022-09-30T01:09:01.129Z,1007.61
2022-09-30T01:10:01.150Z,1007.55
2022-09-30T01:11:05.828Z,1007.59
2022-09-30T01:12:01.438Z,1007.61
2022-09-30T01:13:01.112Z,1007.6
2022-09-30T01:14:01.077Z,1007.58
2022-09-30T01:15:01.233Z,1007.58
2022-09-30T01:16:01.143Z,1007.6
2022-09-30T01:17:01.114Z,1007.61
2022-09-30T01:18:01.140Z,1007.61
2022-09-30T01:19:01.152Z,1007.61
2022-09-30T01:20:01.509Z,1007.63
2022-09-30T01:21:01.130Z,1007.63
2022-09-30T01:22:01.141Z,1007.68
2022-09-30T01:23:01.956Z,1007.65
2022-09-30T01:24:01.047Z,1007.63
2022-09-30T01:25:01.040Z,1007.68
2022-09-30T01:26:01.433Z,1007.67
2022-09-30T01:27:01.071Z,1007.74
2022-09-30T01:28:01.760Z,1007.74
2022-09-30T01:29:01.085Z,1007.72
2022-09-30T01:30:01.772Z,1007.73
2022-09-30T01:31:02.130Z,1007.74
2022-09-30T01:32:01.277Z,1007.73
2022-09-30T01:33:01.895Z,1007.73
2022-09-30T01:34:01.106Z,1007.72
2022-09-30T01:35:01.097Z,1007.7
2022-09-30T01:36:01.108Z,1007.74
2022-09-30T01:37:04.072Z,1007.76
2022-09-30T01:38:01.141Z,1007.8
2022-09-30T01:39:01.059Z,1007.88
2022-09-30T01:40:01.183Z,1007.88
2022-09-30T01:41:01.466Z,1007.91
2022-09-30T01:42:07.002Z,1007.88
2022-09-30T01:43:01.318Z,1007.86
2022-09-30T01:44:01.958Z,1007.88
2022-09-30T01:45:01.979Z,1007.85
2022-09-30T01:46:01.089Z,1007.91
2022-09-30T01:47:09.851Z,1007.86
2022-09-30T01:48:01.117Z,1007.89
2022-09-30T01:49:01.058Z,1007.81
2022-09-30T01:50:01.470Z,1007.8
2022-09-30T01:51:01.102Z,1007.83
2022-09-30T01:52:13.653Z,1007.79
2022-09-30T01:53:01.170Z,1007.75
2022-09-30T01:54:02.458Z,1007.81
2022-09-30T01:55:01.380Z,1007.81
2022-09-30T01:56:02.567Z,1007.76
2022-09-30T01:57:16.483Z,1007.81
2022-09-30T01:58:00.529Z,1007.8
2022-09-30T01:59:00.094Z,1007.8
2022-09-30T01:59:59.723Z,1007.8
2022-09-30T02:01:03.155Z,1007.84
2022-09-30T02:02:01.938Z,1007.82
2022-09-30T02:03:01.111Z,1007.82
2022-09-30T02:04:01.061Z,1007.86
2022-09-30T02:05:01.305Z,1007.86
2022-09-30T02:06:01.481Z,1007.89
2022-09-30T02:07:01.512Z,1007.96
2022-09-30T02:08:01.124Z,1007.96
2022-09-30T02:09:00.907Z,1008.01
2022-09-30T02:10:00.614Z,1008.04
2022-09-30T02:11:00.313Z,1008.07
2022-09-30T02:12:00.001Z,1008.13
2022-09-30T02:12:59.758Z,1008.14
2022-09-30T02:14:01.433Z,1008.1
2022-09-30T02:15:01.165Z,1008.16
2022-09-30T02:16:08.074Z,1008.19
2022-09-30T02:17:01.064Z,1008.2
2022-09-30T02:18:01.173Z,1008.19
2022-09-30T02:19:01.100Z,1008.2
2022-09-30T02:20:01.076Z,1008.2
2022-09-30T02:21:01.223Z,1008.23
2022-09-30T02:22:01.130Z,1008.19
2022-09-30T02:23:01.500Z,1008.21
2022-09-30T02:24:01.036Z,1008.25
2022-09-30T02:25:01.117Z,1008.22
2022-09-30T02:26:01.118Z,1008.23
2022-09-30T02:27:01.118Z,1008.19
2022-09-30T02:28:01.155Z,1008.2
2022-09-30T02:29:01.149Z,1008.16
2022-09-30T02:30:01.394Z,1008.15
2022-09-30T02:31:01.474Z,1008.13
2022-09-30T02:32:01.417Z,1008.17
2022-09-30T02:33:02.252Z,1008.15
2022-09-30T02:34:02.101Z,1008.15
2022-09-30T02:35:02.190Z,1008.09
2022-09-30T02:36:01.096Z,1008.07
2022-09-30T02:37:01.101Z,1008.07
2022-09-30T02:38:01.125Z,1008.05
2022-09-30T02:39:01.140Z,1008.02
2022-09-30T02:40:01.219Z,1008.06
2022-09-30T02:41:02.293Z,1008.07
2022-09-30T02:42:01.045Z,1008.09
2022-09-30T02:43:01.067Z,1008.09
2022-09-30T02:44:01.150Z,1008.12
2022-09-30T02:45:01.155Z,1008.16
2022-09-30T02:46:01.174Z,1008.12
2022-09-30T02:47:01.845Z,1008.14
2022-09-30T02:48:01.891Z,1008.14
2022-09-30T02:49:01.225Z,1008.14
2022-09-30T02:50:01.882Z,1008.1
2022-09-30T02:51:01.461Z,1008.11
2022-09-30T02:52:01.122Z,1008.17
2022-09-30T02:53:00.924Z,1008.15
2022-09-30T02:54:01.113Z,1008.16
2022-09-30T02:55:01.118Z,1008.17
2022-09-30T02:56:01.111Z,1008.15
2022-09-30T02:57:01.141Z,1008.19
2022-09-30T02:58:01.205Z,1008.19
2022-09-30T02:59:00.805Z,1008.19
2022-09-30T03:00:03.172Z,1008.18
2022-09-30T03:01:02.278Z,1008.28
2022-09-30T03:02:01.836Z,1008.29
2022-09-30T03:03:01.064Z,1008.27
2022-09-30T03:04:01.129Z,1008.29
2022-09-30T03:05:01.077Z,1008.32
2022-09-30T03:06:01.747Z,1008.29
2022-09-30T03:07:02.089Z,1008.31
2022-09-30T03:08:02.107Z,1008.33
2022-09-30T03:09:01.142Z,1008.31
2022-09-30T03:10:01.378Z,1008.33
2022-09-30T03:11:01.114Z,1008.34
2022-09-30T03:12:01.132Z,1008.37
2022-09-30T03:13:01.183Z,1008.35
2022-09-30T03:14:00.819Z,1008.3
2022-09-30T03:15:00.806Z,1008.34
2022-09-30T03:16:00.571Z,1008.34
2022-09-30T03:17:00.228Z,1008.34
2022-09-30T03:18:02.633Z,1008.36
2022-09-30T03:19:01.055Z,1008.33
2022-09-30T03:20:01.071Z,1008.32
2022-09-30T03:21:01.073Z,1008.32
2022-09-30T03:22:01.068Z,1008.34
2022-09-30T03:23:05.988Z,1008.32
2022-09-30T03:24:01.193Z,1008.33
2022-09-30T03:25:01.087Z,1008.36
2022-09-30T03:26:01.103Z,1008.34
2022-09-30T03:27:01.106Z,1008.33
2022-09-30T03:28:08.432Z,1008.34
2022-09-30T03:29:01.813Z,1008.32
2022-09-30T03:30:01.124Z,1008.34
2022-09-30T03:31:01.215Z,1008.35
2022-09-30T03:32:01.130Z,1008.38
2022-09-30T03:33:11.539Z,1008.39
2022-09-30T03:34:00.422Z,1008.35
2022-09-30T03:35:00.016Z,1008.38
2022-09-30T03:35:59.630Z,1008.38
2022-09-30T03:37:04.171Z,1008.4
2022-09-30T03:38:13.603Z,1008.41
2022-09-30T03:39:01.386Z,1008.45
2022-09-30T03:40:02.105Z,1008.47
2022-09-30T03:41:02.106Z,1008.45
2022-09-30T03:42:01.322Z,1008.5
2022-09-30T03:43:16.325Z,1008.49
2022-09-30T03:44:01.001Z,1008.5
2022-09-30T03:45:01.037Z,1008.49
2022-09-30T03:46:01.132Z,1008.45
2022-09-30T03:47:01.277Z,1008.44
2022-09-30T03:48:01.172Z,1008.47
2022-09-30T03:49:01.650Z,1008.4
2022-09-30T03:50:01.050Z,1008.46
2022-09-30T03:51:01.134Z,1008.41
2022-09-30T03:52:01.769Z,1008.42
2022-09-30T03:53:01.472Z,1008.43
2022-09-30T03:54:01.168Z,1008.45
2022-09-30T03:55:00.936Z,1008.47
2022-09-30T03:56:01.239Z,1008.41
2022-09-30T03:57:01.094Z,1008.42
2022-09-30T03:58:01.057Z,1008.47
2022-09-30T03:59:03.768Z,1008.44
2022-09-30T04:00:01.119Z,1008.45
2022-09-30T04:01:01.423Z,1008.45
2022-09-30T04:02:01.591Z,1008.48
2022-09-30T04:03:01.172Z,1008.55
2022-09-30T04:04:01.139Z,1008.58
2022-09-30T04:05:01.138Z,1008.58
2022-09-30T04:06:01.063Z,1008.58
2022-09-30T04:07:01.060Z,1008.56
2022-09-30T04:08:01.059Z,1008.6
2022-09-30T04:09:01.118Z,1008.56
2022-09-30T04:10:01.269Z,1008.58
2022-09-30T04:11:01.154Z,1008.57
2022-09-30T04:12:01.099Z,1008.56
2022-09-30T04:13:01.111Z,1008.55
2022-09-30T04:14:01.103Z,1008.55
2022-09-30T04:15:01.108Z,1008.49
2022-09-30T04:16:01.189Z,1008.52
2022-09-30T04:17:01.132Z,1008.52
2022-09-30T04:18:01.149Z,1008.47
2022-09-30T04:19:01.544Z,1008.52
2022-09-30T04:20:01.246Z,1008.53
2022-09-30T04:21:01.172Z,1008.51
2022-09-30T04:22:01.053Z,1008.56
2022-09-30T04:23:01.186Z,1008.54
2022-09-30T04:24:01.060Z,1008.56
2022-09-30T04:25:01.070Z,1008.58
2022-09-30T04:26:01.074Z,1008.63
2022-09-30T04:27:01.376Z,1008.64
2022-09-30T04:28:01.385Z,1008.67
2022-09-30T04:29:02.108Z,1008.67
2022-09-30T04:30:02.609Z,1008.75
2022-09-30T04:31:00.958Z,1008.73
2022-09-30T04:32:01.127Z,1008.76
2022-09-30T04:33:01.139Z,1008.78
2022-09-30T04:34:00.880Z,1008.76
2022-09-30T04:35:01.132Z,1008.74
2022-09-30T04:36:01.169Z,1008.78
2022-09-30T04:37:00.947Z,1008.73
2022-09-30T04:38:01.908Z,1008.8
2022-09-30T04:39:01.440Z,1008.77
2022-09-30T04:40:01.168Z,1008.81
2022-09-30T04:41:01.878Z,1008.8
2022-09-30T04:42:01.403Z,1008.84
2022-09-30T04:43:01.110Z,1008.87
2022-09-30T04:44:01.416Z,1008.87
2022-09-30T04:45:01.110Z,1008.86
2022-09-30T04:46:01.222Z,1008.86
2022-09-30T04:47:02.647Z,1008.87
2022-09-30T04:48:01.132Z,1008.89
2022-09-30T04:49:01.049Z,1008.92
2022-09-30T04:50:00.909Z,1008.92
2022-09-30T04:51:01.166Z,1008.95
2022-09-30T04:52:01.139Z,1008.95
2022-09-30T04:53:01.053Z,1008.97
2022-09-30T04:54:01.161Z,1008.94
2022-09-30T04:55:01.067Z,1008.95
2022-09-30T04:56:01.075Z,1008.92
2022-09-30T04:57:01.049Z,1008.86
2022-09-30T04:58:01.058Z,1008.96
2022-09-30T04:59:01.198Z,1008.92
2022-09-30T05:00:01.536Z,1008.91
2022-09-30T05:01:02.313Z,1008.95
2022-09-30T05:02:01.223Z,1008.92
2022-09-30T05:03:00.525Z,1008.94
2022-09-30T05:04:04.184Z,1008.93
2022-09-30T05:05:01.130Z,1008.99
2022-09-30T05:06:01.154Z,1008.94
2022-09-30T05:07:01.147Z,1008.94
2022-09-30T05:08:01.155Z,1008.97
2022-09-30T05:09:06.010Z,1009
2022-09-30T05:10:01.182Z,1009.02
2022-09-30T05:11:01.108Z,1009.05
2022-09-30T05:12:01.450Z,1009.09
2022-09-30T05:13:01.094Z,1009.05
2022-09-30T05:14:09.953Z,1009.11
2022-09-30T05:15:01.042Z,1009.11
2022-09-30T05:16:00.635Z,1009.16
2022-09-30T05:17:00.442Z,1009.18
2022-09-30T05:18:00.488Z,1009.19
2022-09-30T05:19:10.792Z,1009.19
2022-09-30T05:20:02.138Z,1009.17
2022-09-30T05:21:01.806Z,1009.24
2022-09-30T05:22:02.165Z,1009.22
2022-09-30T05:23:01.431Z,1009.23
2022-09-30T05:24:14.201Z,1009.21
2022-09-30T05:25:01.073Z,1009.18
2022-09-30T05:26:01.072Z,1009.23
2022-09-30T05:27:01.172Z,1009.23
2022-09-30T05:28:02.072Z,1009.24
2022-09-30T05:29:15.903Z,1009.25
2022-09-30T05:30:01.475Z,1009.27
2022-09-30T05:31:01.274Z,1009.26
2022-09-30T05:32:01.344Z,1009.29
2022-09-30T05:33:02.114Z,1009.31
2022-09-30T05:34:01.102Z,1009.29
2022-09-30T05:35:01.128Z,1009.29
2022-09-30T05:36:01.721Z,1009.31
2022-09-30T05:37:02.530Z,1009.29
2022-09-30T05:38:01.818Z,1009.31
2022-09-30T05:39:01.213Z,1009.37
2022-09-30T05:40:01.151Z,1009.39
2022-09-30T05:41:01.235Z,1009.41
2022-09-30T05:42:01.221Z,1009.43
2022-09-30T05:43:01.235Z,1009.42
2022-09-30T05:44:01.445Z,1009.42
2022-09-30T05:45:01.090Z,1009.45
2022-09-30T05:46:01.089Z,1009.49
2022-09-30T05:47:01.178Z,1009.51
2022-09-30T05:48:01.123Z,1009.56
2022-09-30T05:49:01.107Z,1009.53
2022-09-30T05:50:01.143Z,1009.57
2022-09-30T05:51:01.050Z,1009.58
2022-09-30T05:52:01.180Z,1009.59
2022-09-30T05:53:01.516Z,1009.61
2022-09-30T05:54:01.065Z,1009.63
2022-09-30T05:55:01.048Z,1009.68
2022-09-30T05:56:01.162Z,1009.66
2022-09-30T05:57:00.846Z,1009.68
2022-09-30T05:58:00.441Z,1009.72
2022-09-30T05:59:00.025Z,1009.67
2022-09-30T05:59:59.734Z,1009.7
2022-09-30T06:01:08.013Z,1009.65
2022-09-30T06:02:02.420Z,1009.68
2022-09-30T06:03:01.193Z,1009.67
2022-09-30T06:04:01.284Z,1009.67
2022-09-30T06:05:01.112Z,1009.71
2022-09-30T06:06:01.128Z,1009.7
2022-09-30T06:07:01.160Z,1009.72
2022-09-30T06:08:01.171Z,1009.72
2022-09-30T06:09:01.242Z,1009.72
2022-09-30T06:10:01.129Z,1009.73
2022-09-30T06:11:01.151Z,1009.72
2022-09-30T06:12:01.147Z,1009.76
2022-09-30T06:13:01.056Z,1009.74
2022-09-30T06:14:01.118Z,1009.8
2022-09-30T06:15:01.086Z,1009.83
2022-09-30T06:16:00.736Z,1009.85
2022-09-30T06:17:00.460Z,1009.83
2022-09-30T06:18:00.040Z,1009.8
2022-09-30T06:18:59.648Z,1009.82
2022-09-30T06:20:01.770Z,1009.89
2022-09-30T06:21:01.789Z,1009.9
2022-09-30T06:22:01.150Z,1009.87
2022-09-30T06:23:01.118Z,1009.87
2022-09-30T06:24:01.115Z,1009.95
2022-09-30T06:25:01.674Z,1009.9
2022-09-30T06:26:01.334Z,1009.91
2022-09-30T06:27:01.145Z,1009.94
2022-09-30T06:28:01.153Z,1009.9
2022-09-30T06:29:01.051Z,1009.96
2022-09-30T06:30:01.054Z,1009.93
2022-09-30T06:31:01.154Z,1009.95
2022-09-30T06:32:01.172Z,1009.95
2022-09-30T06:33:01.079Z,1009.95
2022-09-30T06:34:00.559Z,1009.97
2022-09-30T06:35:00.164Z,1009.9
2022-09-30T06:35:59.770Z,1009.91
2022-09-30T06:37:01.800Z,1009.9
2022-09-30T06:38:01.118Z,1009.93
2022-09-30T06:39:01.182Z,1009.94
2022-09-30T06:40:01.118Z,1009.95
2022-09-30T06:41:01.140Z,1009.97
2022-09-30T06:42:01.507Z,1009.94
2022-09-30T06:43:00.949Z,1009.98
2022-09-30T06:44:09.285Z,1009.96
2022-09-30T06:45:02.089Z,1009.99
2022-09-30T06:46:13.512Z,1010.02
2022-09-30T06:47:01.165Z,1010.01
2022-09-30T06:48:01.513Z,1010.03
2022-09-30T06:49:12.173Z,1009.95
2022-09-30T06:50:04.512Z,1009.97
2022-09-30T06:51:02.430Z,1009.99
2022-09-30T06:52:01.108Z,1010.02
2022-09-30T06:53:01.484Z,1009.98
2022-09-30T06:54:02.334Z,1010.02
2022-09-30T06:55:07.799Z,1010
2022-09-30T06:56:01.023Z,1010
2022-09-30T06:57:01.354Z,1010.03
2022-09-30T06:58:01.158Z,1010.02
2022-09-30T06:59:03.536Z,1010.04
2022-09-30T07:00:10.236Z,1010.08
2022-09-30T07:01:01.333Z,1010.09
2022-09-30T07:02:02.113Z,1010.08
2022-09-30T07:03:01.089Z,1010.06
2022-09-30T07:04:01.085Z,1010.13
2022-09-30T07:05:13.753Z,1010.12
2022-09-30T07:06:01.095Z,1010.11
2022-09-30T07:07:01.107Z,1010.13
2022-09-30T07:08:01.118Z,1010.12
2022-09-30T07:09:01.147Z,1010.1
2022-09-30T07:10:16.053Z,1010.14
2022-09-30T07:11:04.446Z,1010.12
2022-09-30T07:12:01.219Z,1010.19
2022-09-30T07:13:01.138Z,1010.18
2022-09-30T07:14:00.516Z,1010.2
2022-09-30T07:15:00.131Z,1010.19
2022-09-30T07:16:00.252Z,1010.24
2022-09-30T07:17:00.034Z,1010.24
2022-09-30T07:17:59.731Z,1010.28
2022-09-30T07:19:01.331Z,1010.28
2022-09-30T07:20:01.275Z,1010.25
2022-09-30T07:21:01.070Z,1010.31
2022-09-30T07:22:00.780Z,1010.28
2022-09-30T07:23:00.387Z,1010.3
2022-09-30T07:23:59.955Z,1010.32
2022-09-30T07:24:59.572Z,1010.36
2022-09-30T07:26:01.135Z,1010.41
2022-09-30T07:27:01.123Z,1010.4
2022-09-30T07:28:01.291Z,1010.46
2022-09-30T07:29:01.382Z,1010.4
2022-09-30T07:30:09.554Z,1010.46
2022-09-30T07:31:27.999Z,1010.44
2022-09-30T07:32:01.238Z,1010.43
2022-09-30T07:33:01.945Z,1010.4
2022-09-30T07:34:00.804Z,1010.41
2022-09-30T07:35:00.530Z,1010.38
2022-09-30T07:36:00.389Z,1010.39
2022-09-30T07:37:00.051Z,1010.37
2022-09-30T07:37:59.780Z,1010.39
2022-09-30T07:39:02.147Z,1010.38
2022-09-30T07:40:01.426Z,1010.41
2022-09-30T07:41:01.125Z,1010.41
2022-09-30T07:42:01.111Z,1010.38
2022-09-30T07:43:01.122Z,1010.39
2022-09-30T07:44:01.122Z,1010.38
2022-09-30T07:45:01.135Z,1010.43
2022-09-30T07:46:01.192Z,1010.42
2022-09-30T07:47:01.151Z,1010.4
2022-09-30T07:48:01.151Z,1010.42
2022-09-30T07:49:01.132Z,1010.43
2022-09-30T07:50:01.146Z,1010.45
2022-09-30T07:51:01.084Z,1010.47
2022-09-30T07:52:03.405Z,1010.49
2022-09-30T07:53:01.102Z,1010.49
2022-09-30T07:54:01.064Z,1010.47
2022-09-30T07:55:01.189Z,1010.44
2022-09-30T07:56:00.799Z,1010.44
2022-09-30T07:57:15.963Z,1010.48
2022-09-30T07:58:01.496Z,1010.5
2022-09-30T07:59:01.507Z,1010.53
2022-09-30T08:00:17.071Z,1010.54
2022-09-30T08:01:03.129Z,1010.54
2022-09-30T08:02:01.224Z,1010.6
2022-09-30T08:03:01.149Z,1010.6
2022-09-30T08:04:01.047Z,1010.61
2022-09-30T08:05:01.054Z,1010.64
2022-09-30T08:06:01.184Z,1010.65
2022-09-30T08:07:02.308Z,1010.64
2022-09-30T08:08:01.303Z,1010.7
2022-09-30T08:09:02.197Z,1010.66
2022-09-30T08:10:02.225Z,1010.7
2022-09-30T08:11:01.410Z,1010.68
2022-09-30T08:12:01.054Z,1010.74
2022-09-30T08:13:03.049Z,1010.7
2022-09-30T08:14:01.406Z,1010.75
2022-09-30T08:15:01.055Z,1010.77
2022-09-30T08:16:01.024Z,1010.74
2022-09-30T08:17:01.520Z,1010.79
2022-09-30T08:18:02.186Z,1010.81
2022-09-30T08:19:01.166Z,1010.85
2022-09-30T08:20:03.858Z,1010.82
2022-09-30T08:21:01.081Z,1010.84
2022-09-30T08:23:01.079Z,1010.8
2022-09-30T08:24:01.082Z,1010.88
2022-09-30T08:25:01.102Z,1010.84
2022-09-30T08:26:01.437Z,1010.87
2022-09-30T08:27:01.170Z,1010.9
2022-09-30T08:28:01.114Z,1010.87
2022-09-30T08:29:01.121Z,1010.85
2022-09-30T08:30:04.795Z,1010.92
2022-09-30T08:31:01.871Z,1010.89
2022-09-30T08:32:01.209Z,1010.93
2022-09-30T08:33:01.156Z,1010.86
2022-09-30T08:34:01.234Z,1010.91
2022-09-30T08:35:01.297Z,1010.88
2022-09-30T08:36:01.777Z,1010.86
2022-09-30T08:37:04.910Z,1010.88
2022-09-30T08:38:01.071Z,1010.9
2022-09-30T08:39:01.087Z,1010.92
2022-09-30T08:40:01.240Z,1010.88
2022-09-30T08:41:05.560Z,1010.92
2022-09-30T08:42:08.735Z,1010.95
2022-09-30T08:43:02.169Z,1010.95
2022-09-30T08:44:01.603Z,1010.96
2022-09-30T08:45:01.116Z,1010.96
2022-09-30T08:46:09.209Z,1011.02
2022-09-30T08:47:01.346Z,1010.96
2022-09-30T08:48:01.146Z,1011.01
2022-09-30T08:49:03.405Z,1010.99
2022-09-30T08:50:02.577Z,1010.98
2022-09-30T08:51:10.492Z,1010.98
2022-09-30T08:52:01.066Z,1011
2022-09-30T08:53:01.452Z,1011
2022-09-30T08:54:01.186Z,1010.99
2022-09-30T08:55:00.864Z,1011
2022-09-30T08:56:14.004Z,1011.04
2022-09-30T08:57:01.085Z,1010.99
2022-09-30T08:58:01.102Z,1011.05
2022-09-30T08:59:01.112Z,1011.05
2022-09-30T09:00:01.206Z,1011.08
2022-09-30T09:01:16.288Z,1011.02
2022-09-30T09:02:01.583Z,1011.08
2022-09-30T09:03:01.164Z,1011.02
2022-09-30T09:04:01.147Z,1011.02
2022-09-30T09:05:01.064Z,1011.01
2022-09-30T09:06:01.090Z,1010.99
2022-09-30T09:07:01.194Z,1011.03
2022-09-30T09:08:01.068Z,1011.03
2022-09-30T09:09:01.100Z,1011.07
2022-09-30T09:10:01.082Z,1011.08
2022-09-30T09:11:01.088Z,1011.07
2022-09-30T09:12:01.111Z,1011.12
2022-09-30T09:13:01.149Z,1011.1
2022-09-30T09:14:01.089Z,1011.11
2022-09-30T09:15:01.202Z,1011.08
2022-09-30T09:16:00.812Z,1011.11
2022-09-30T09:17:00.499Z,1011.1
2022-09-30T09:18:22.137Z,1011.08
2022-09-30T09:19:01.721Z,1011.08
2022-09-30T09:20:01.158Z,1011.05
2022-09-30T09:21:01.144Z,1011.05
2022-09-30T09:22:01.167Z,1011.04
2022-09-30T09:23:01.308Z,1011.05
2022-09-30T09:24:01.432Z,1011.04
2022-09-30T09:25:02.068Z,1011.04
2022-09-30T09:26:01.476Z,1011.02
2022-09-30T09:27:01.098Z,1011.04
2022-09-30T09:28:02.700Z,1011.02
2022-09-30T09:29:01.111Z,1011.06
2022-09-30T09:30:01.088Z,1011.05
2022-09-30T09:31:01.056Z,1011.02
2022-09-30T09:32:01.695Z,1011.05
2022-09-30T09:33:02.544Z,1011.07
2022-09-30T09:34:02.025Z,1011.03
2022-09-30T09:35:01.137Z,1011.09
2022-09-30T09:36:01.149Z,1011.02
2022-09-30T09:37:01.187Z,1011
2022-09-30T09:38:01.277Z,1011
2022-09-30T09:39:01.897Z,1011.01
2022-09-30T09:40:04.349Z,1011
2022-09-30T09:41:01.082Z,1010.97
2022-09-30T09:42:01.118Z,1010.92
2022-09-30T09:43:01.077Z,1010.88
2022-09-30T09:44:01.038Z,1010.94
2022-09-30T09:45:01.116Z,1010.98
2022-09-30T09:46:01.254Z,1010.97
2022-09-30T09:47:01.330Z,1010.95
2022-09-30T09:48:02.129Z,1010.96
2022-09-30T09:49:04.098Z,1010.95
2022-09-30T09:50:01.117Z,1010.95
2022-09-30T09:51:01.396Z,1010.98
2022-09-30T09:52:02.051Z,1010.91
2022-09-30T09:53:02.042Z,1010.9
2022-09-30T09:54:01.043Z,1010.88
2022-09-30T09:55:01.263Z,1010.87
2022-09-30T09:56:00.753Z,1010.87
2022-09-30T09:57:00.354Z,1010.88
2022-09-30T09:57:59.933Z,1010.84
2022-09-30T09:58:59.639Z,1010.85
2022-09-30T10:00:01.767Z,1010.86
2022-09-30T10:01:02.548Z,1010.88
2022-09-30T10:02:02.180Z,1010.86
2022-09-30T10:03:01.936Z,1010.84
2022-09-30T10:04:02.921Z,1010.82
2022-09-30T10:05:01.130Z,1010.88
2022-09-30T10:06:01.130Z,1010.88
2022-09-30T10:07:01.042Z,1010.88
2022-09-30T10:08:01.130Z,1010.85
2022-09-30T10:09:01.393Z,1010.83
2022-09-30T10:10:01.487Z,1010.84
2022-09-30T10:11:04.126Z,1010.86
2022-09-30T10:12:01.078Z,1010.88
2022-09-30T10:13:01.067Z,1010.85
2022-09-30T10:14:01.084Z,1010.84
2022-09-30T10:15:01.046Z,1010.84
2022-09-30T10:16:00.759Z,1010.83
2022-09-30T10:17:00.357Z,1010.82
2022-09-30T10:17:59.951Z,1010.86
2022-09-30T10:18:59.594Z,1010.81
2022-09-30T10:20:01.300Z,1010.85
2022-09-30T10:21:04.022Z,1010.81
2022-09-30T10:22:03.153Z,1010.8
2022-09-30T10:23:01.131Z,1010.79
2022-09-30T10:24:01.780Z,1010.8
2022-09-30T10:25:01.154Z,1010.82
2022-09-30T10:26:01.866Z,1010.79
2022-09-30T10:27:05.404Z,1010.84
2022-09-30T10:28:02.620Z,1010.85
2022-09-30T10:29:01.117Z,1010.85
2022-09-30T10:30:01.076Z,1010.89
2022-09-30T10:31:01.430Z,1010.88
2022-09-30T10:32:07.035Z,1010.93
2022-09-30T10:33:01.098Z,1010.91
2022-09-30T10:34:01.093Z,1010.91
2022-09-30T10:35:01.304Z,1010.92
2022-09-30T10:36:01.117Z,1010.82
2022-09-30T10:37:11.018Z,1010.85
2022-09-30T10:38:01.254Z,1010.84
2022-09-30T10:39:04.185Z,1010.85
2022-09-30T10:40:01.437Z,1010.88
2022-09-30T10:41:01.241Z,1010.82
2022-09-30T10:42:12.283Z,1010.79
2022-09-30T10:43:01.249Z,1010.75
2022-09-30T10:44:01.995Z,1010.78
2022-09-30T10:45:00.984Z,1010.68
2022-09-30T10:46:24.027Z,1010.72
2022-09-30T10:47:15.033Z,1010.69
2022-09-30T10:48:01.457Z,1010.74
2022-09-30T10:49:01.124Z,1010.71
2022-09-30T10:50:01.092Z,1010.74
2022-09-30T10:51:01.224Z,1010.71
2022-09-30T10:52:16.160Z,1010.67
2022-09-30T10:53:01.496Z,1010.66
2022-09-30T10:54:01.130Z,1010.72
2022-09-30T10:55:01.129Z,1010.72
2022-09-30T10:56:01.145Z,1010.68
2022-09-30T10:57:01.139Z,1010.77
2022-09-30T10:58:01.173Z,1010.76
2022-09-30T10:59:01.046Z,1010.76
2022-09-30T11:00:01.160Z,1010.75
2022-09-30T11:01:01.073Z,1010.79
2022-09-30T11:02:05.277Z,1010.78
2022-09-30T11:03:01.988Z,1010.78
2022-09-30T11:04:01.482Z,1010.78
2022-09-30T11:05:01.091Z,1010.76
2022-09-30T11:06:01.413Z,1010.73
2022-09-30T11:07:02.030Z,1010.74
2022-09-30T11:08:02.121Z,1010.74
2022-09-30T11:09:01.139Z,1010.77
2022-09-30T11:10:00.807Z,1010.7
2022-09-30T11:11:00.522Z,1010.76
2022-09-30T11:12:00.932Z,1010.7
2022-09-30T11:13:01.162Z,1010.71
2022-09-30T11:14:01.163Z,1010.67
2022-09-30T11:15:01.055Z,1010.71
2022-09-30T11:16:01.145Z,1010.68
2022-09-30T11:17:01.981Z,1010.69
2022-09-30T11:18:01.067Z,1010.67
2022-09-30T11:19:01.080Z,1010.67
2022-09-30T11:20:01.090Z,1010.7
2022-09-30T11:21:01.097Z,1010.71
2022-09-30T11:22:01.148Z,1010.71
2022-09-30T11:23:01.216Z,1010.69
2022-09-30T11:24:01.115Z,1010.73
2022-09-30T11:25:01.121Z,1010.7
2022-09-30T11:26:01.188Z,1010.74
2022-09-30T11:27:01.125Z,1010.68
2022-09-30T11:28:01.196Z,1010.67
2022-09-30T11:29:01.242Z,1010.68
2022-09-30T11:30:01.560Z,1010.69
2022-09-30T11:31:04.912Z,1010.7
2022-09-30T11:32:02.303Z,1010.69
2022-09-30T11:33:01.075Z,1010.71
2022-09-30T11:34:01.073Z,1010.72
2022-09-30T11:35:01.093Z,1010.72
2022-09-30T11:36:01.103Z,1010.7
2022-09-30T11:37:01.049Z,1010.74
2022-09-30T11:38:01.036Z,1010.69
2022-09-30T11:39:01.489Z,1010.71
2022-09-30T11:40:01.117Z,1010.71
2022-09-30T11:41:02.030Z,1010.71
2022-09-30T11:42:00.631Z,1010.79
2022-09-30T11:43:01.541Z,1010.73
2022-09-30T11:44:01.190Z,1010.69
2022-09-30T11:45:01.048Z,1010.68
2022-09-30T11:46:01.091Z,1010.72
2022-09-30T11:47:01.066Z,1010.71
2022-09-30T11:48:01.467Z,1010.69
2022-09-30T11:49:01.079Z,1010.65
2022-09-30T11:50:01.394Z,1010.66
2022-09-30T11:51:01.098Z,1010.67
2022-09-30T11:52:01.116Z,1010.66
2022-09-30T11:53:01.381Z,1010.64
2022-09-30T11:54:01.481Z,1010.6
2022-09-30T11:55:02.574Z,1010.69
2022-09-30T11:56:01.148Z,1010.64
2022-09-30T11:57:01.168Z,1010.65
2022-09-30T11:58:11.977Z,1010.67
2022-09-30T11:59:01.129Z,1010.69
2022-09-30T12:00:00.825Z,1010.66
2022-09-30T12:01:01.142Z,1010.67
2022-09-30T12:02:01.617Z,1010.64
2022-09-30T12:03:01.511Z,1010.66
2022-09-30T12:04:01.269Z,1010.63
2022-09-30T12:05:01.958Z,1010.6
2022-09-30T12:06:01.095Z,1010.59
2022-09-30T12:07:01.083Z,1010.55
2022-09-30T12:08:01.085Z,1010.53
2022-09-30T12:09:01.098Z,1010.53